DCCHB EDGS-EDDN
Flight info
| Callsign | DCCHB |
|---|---|
| Flight time | 0h 31m |
| Altitude | 23000 |
| Route | DCT TOBAK/N0420F230 IFR DCT LOHRE DCT DODAS DODAS1V |
| Aircraft | LJ35/M-SGHRWXY/SB1 |
Departure
| Time | 2026-05-04 17:48 |
|---|---|
| Airport | Siegerland Airport (EDGS) |
Arrival
| Time | 2026-05-04 18:19 |
|---|---|
| Airport | Nuremberg Airport (EDDN) |
| Time | Latitude | Longitude | Altitude | Speed | Heading |
|---|---|---|---|---|---|
| 2026-05-04 17:33 | 50.70527 | 8.07819 | 1965 ft | 0 kts | 154° |
| 2026-05-04 17:40 | 50.70525 | 8.07829 | 1965 ft | 2 kts | 81° |
| 2026-05-04 17:40 | 50.70525 | 8.07831 | 1965 ft | 0 kts | 64° |
| 2026-05-04 17:42 | 50.70529 | 8.07838 | 1965 ft | 1 kts | 39° |
| 2026-05-04 17:42 | 50.70536 | 8.07844 | 1965 ft | 3 kts | 24° |
| 2026-05-04 17:42 | 50.70561 | 8.07865 | 1965 ft | 6 kts | 42° |
| 2026-05-04 17:42 | 50.70596 | 8.07931 | 1963 ft | 10 kts | 39° |
| 2026-05-04 17:43 | 50.70646 | 8.07996 | 1957 ft | 8 kts | 41° |
| 2026-05-04 17:43 | 50.70653 | 8.08005 | 1957 ft | 0 kts | 40° |
| 2026-05-04 17:44 | 50.70668 | 8.08038 | 1957 ft | 8 kts | 76° |
| 2026-05-04 17:45 | 50.70631 | 8.08144 | 1956 ft | 15 kts | 128° |
| 2026-05-04 17:45 | 50.70569 | 8.08270 | 1952 ft | 16 kts | 127° |
| 2026-05-04 17:45 | 50.70469 | 8.08468 | 1937 ft | 24 kts | 125° |
| 2026-05-04 17:45 | 50.70378 | 8.08650 | 1932 ft | 19 kts | 127° |
| 2026-05-04 17:46 | 50.70321 | 8.08768 | 1927 ft | 9 kts | 121° |
| 2026-05-04 17:46 | 50.70313 | 8.08855 | 1930 ft | 7 kts | 64° |
| 2026-05-04 17:46 | 50.70332 | 8.08888 | 1937 ft | 1 kts | 40° |
| 2026-05-04 17:46 | 50.70352 | 8.08911 | 1941 ft | 8 kts | 35° |
| 2026-05-04 17:47 | 50.70405 | 8.08966 | 1947 ft | 9 kts | 17° |
| 2026-05-04 17:47 | 50.70437 | 8.08953 | 1947 ft | 0 kts | 307° |
| 2026-05-04 17:47 | 50.70495 | 8.08835 | 1945 ft | 56 kts | 308° |
| 2026-05-04 17:48 | 50.70969 | 8.07887 | 1995 ft | 155 kts | 308° |
| 2026-05-04 17:48 | 50.71743 | 8.06702 | 2743 ft | 153 kts | 333° |
| 2026-05-04 17:48 | 50.72818 | 8.06527 | 3282 ft | 163 kts | 15° |
| 2026-05-04 17:48 | 50.73774 | 8.07564 | 3657 ft | 174 kts | 44° |
| 2026-05-04 17:49 | 50.74603 | 8.09030 | 4020 ft | 187 kts | 52° |
| 2026-05-04 17:49 | 50.75424 | 8.10679 | 4419 ft | 195 kts | 52° |
| 2026-05-04 17:49 | 50.76291 | 8.12404 | 4717 ft | 207 kts | 52° |
| 2026-05-04 17:49 | 50.77223 | 8.14227 | 4993 ft | 219 kts | 51° |
| 2026-05-04 17:50 | 50.78171 | 8.16205 | 5383 ft | 235 kts | 63° |
| 2026-05-04 17:50 | 50.78532 | 8.18753 | 5835 ft | 245 kts | 97° |
| 2026-05-04 17:50 | 50.78069 | 8.21405 | 6273 ft | 264 kts | 116° |
| 2026-05-04 17:50 | 50.77254 | 8.24197 | 6653 ft | 294 kts | 119° |
| 2026-05-04 17:51 | 50.76263 | 8.27014 | 7326 ft | 291 kts | 125° |
| 2026-05-04 17:51 | 50.75234 | 8.29711 | 8136 ft | 285 kts | 124° |
| 2026-05-04 17:51 | 50.74234 | 8.32449 | 8756 ft | 295 kts | 123° |
| 2026-05-04 17:51 | 50.73167 | 8.35373 | 9345 ft | 318 kts | 123° |
| 2026-05-04 17:52 | 50.72030 | 8.38467 | 10079 ft | 333 kts | 123° |
| 2026-05-04 17:52 | 50.70843 | 8.41686 | 10751 ft | 351 kts | 123° |
| 2026-05-04 17:52 | 50.69550 | 8.45177 | 11275 ft | 384 kts | 123° |
| 2026-05-04 17:52 | 50.68161 | 8.48947 | 11884 ft | 408 kts | 122° |
| 2026-05-04 17:53 | 50.66747 | 8.52791 | 12575 ft | 407 kts | 122° |
| 2026-05-04 17:53 | 50.65308 | 8.56698 | 12754 ft | 415 kts | 122° |
| 2026-05-04 17:53 | 50.63854 | 8.60605 | 13149 ft | 415 kts | 123° |
| 2026-05-04 17:53 | 50.62387 | 8.64533 | 13408 ft | 417 kts | 122° |
| 2026-05-04 17:54 | 50.60919 | 8.68491 | 13897 ft | 419 kts | 122° |
| 2026-05-04 17:54 | 50.59447 | 8.72479 | 14354 ft | 423 kts | 122° |
| 2026-05-04 17:54 | 50.57934 | 8.76470 | 14753 ft | 426 kts | 125° |
| 2026-05-04 17:54 | 50.56060 | 8.80078 | 15149 ft | 426 kts | 136° |
| 2026-05-04 17:55 | 50.53872 | 8.83223 | 15545 ft | 428 kts | 141° |
| 2026-05-04 17:55 | 50.51638 | 8.86338 | 15928 ft | 432 kts | 140° |
| 2026-05-04 17:55 | 50.49391 | 8.89496 | 16296 ft | 434 kts | 140° |
| 2026-05-04 17:55 | 50.47121 | 8.92671 | 16648 ft | 438 kts | 141° |
| 2026-05-04 17:56 | 50.44844 | 8.95863 | 17023 ft | 441 kts | 140° |
| 2026-05-04 17:56 | 50.42588 | 8.99051 | 17323 ft | 443 kts | 140° |
| 2026-05-04 17:56 | 50.40271 | 9.02280 | 17647 ft | 447 kts | 141° |
| 2026-05-04 17:56 | 50.37928 | 9.05510 | 18006 ft | 451 kts | 141° |
| 2026-05-04 17:57 | 50.36372 | 9.07671 | 18375 ft | 452 kts | 141° |
| 2026-05-04 17:57 | 50.33878 | 9.11163 | 18866 ft | 455 kts | 141° |
| 2026-05-04 17:57 | 50.31487 | 9.14501 | 19279 ft | 458 kts | 141° |
| 2026-05-04 17:57 | 50.29099 | 9.17796 | 19707 ft | 460 kts | 141° |
| 2026-05-04 17:58 | 50.26691 | 9.21114 | 20128 ft | 463 kts | 141° |
| 2026-05-04 17:58 | 50.24273 | 9.24468 | 20522 ft | 465 kts | 141° |
| 2026-05-04 17:58 | 50.21846 | 9.27831 | 20918 ft | 468 kts | 141° |
| 2026-05-04 17:58 | 50.19402 | 9.31198 | 21284 ft | 470 kts | 141° |
| 2026-05-04 17:59 | 50.16938 | 9.34580 | 21622 ft | 472 kts | 141° |
| 2026-05-04 17:59 | 50.14503 | 9.37930 | 21928 ft | 474 kts | 141° |
| 2026-05-04 17:59 | 50.09590 | 9.44837 | 22418 ft | 480 kts | 136° |
| 2026-05-04 18:00 | 50.07501 | 9.48924 | 22619 ft | 484 kts | 127° |
| 2026-05-04 18:00 | 50.05848 | 9.53521 | 22876 ft | 489 kts | 117° |
| 2026-05-04 18:00 | 50.04658 | 9.58505 | 22964 ft | 492 kts | 110° |
| 2026-05-04 18:00 | 50.03623 | 9.63616 | 22965 ft | 486 kts | 110° |
| 2026-05-04 18:01 | 50.02609 | 9.68537 | 22962 ft | 483 kts | 110° |
| 2026-05-04 18:01 | 50.01572 | 9.73497 | 22955 ft | 481 kts | 110° |
| 2026-05-04 18:01 | 50.00543 | 9.78448 | 22957 ft | 480 kts | 110° |
| 2026-05-04 18:02 | 49.98486 | 9.88350 | 22953 ft | 483 kts | 110° |
| 2026-05-04 18:02 | 49.97462 | 9.93248 | 22607 ft | 470 kts | 110° |
| 2026-05-04 18:02 | 49.96455 | 9.98051 | 22098 ft | 467 kts | 110° |
| 2026-05-04 18:02 | 49.95436 | 10.02866 | 21448 ft | 471 kts | 110° |
| 2026-05-04 18:03 | 49.94421 | 10.07713 | 20814 ft | 474 kts | 110° |
| 2026-05-04 18:03 | 49.93396 | 10.12592 | 20201 ft | 477 kts | 110° |
| 2026-05-04 18:03 | 49.92355 | 10.17478 | 19597 ft | 473 kts | 110° |
| 2026-05-04 18:03 | 49.91351 | 10.22218 | 19001 ft | 456 kts | 110° |
| 2026-05-04 18:04 | 49.90370 | 10.26848 | 18414 ft | 448 kts | 110° |
| 2026-05-04 18:04 | 49.89397 | 10.31410 | 17767 ft | 442 kts | 110° |
| 2026-05-04 18:04 | 49.87481 | 10.40350 | 16457 ft | 433 kts | 111° |
| 2026-05-04 18:05 | 49.86583 | 10.44551 | 15861 ft | 430 kts | 111° |
| 2026-05-04 18:05 | 49.85644 | 10.48924 | 15244 ft | 422 kts | 111° |
| 2026-05-04 18:05 | 49.84740 | 10.53125 | 14637 ft | 401 kts | 111° |
| 2026-05-04 18:05 | 49.83872 | 10.57140 | 14035 ft | 386 kts | 111° |
| 2026-05-04 18:06 | 49.81439 | 10.64096 | 12701 ft | 356 kts | 140° |
| 2026-05-04 18:06 | 49.79410 | 10.66103 | 12038 ft | 342 kts | 161° |
| 2026-05-04 18:06 | 49.77164 | 10.67143 | 11404 ft | 333 kts | 168° |
| 2026-05-04 18:07 | 49.74982 | 10.68082 | 10785 ft | 329 kts | 160° |
| 2026-05-04 18:07 | 49.73049 | 10.69970 | 10158 ft | 331 kts | 140° |
| 2026-05-04 18:07 | 49.71698 | 10.72819 | 9606 ft | 329 kts | 119° |
| 2026-05-04 18:07 | 49.70792 | 10.76033 | 9239 ft | 324 kts | 114° |
| 2026-05-04 18:08 | 49.69971 | 10.79255 | 8916 ft | 321 kts | 114° |
| 2026-05-04 18:08 | 49.69105 | 10.82415 | 8587 ft | 318 kts | 116° |
| 2026-05-04 18:08 | 49.68206 | 10.85526 | 8317 ft | 316 kts | 116° |
| 2026-05-04 18:08 | 49.67329 | 10.88625 | 8059 ft | 314 kts | 115° |
| 2026-05-04 18:09 | 49.65617 | 10.94777 | 7553 ft | 309 kts | 115° |
| 2026-05-04 18:09 | 49.63914 | 11.00812 | 7056 ft | 304 kts | 115° |
| 2026-05-04 18:10 | 49.63076 | 11.03790 | 6808 ft | 302 kts | 115° |
| 2026-05-04 18:10 | 49.62239 | 11.06752 | 6565 ft | 300 kts | 115° |
| 2026-05-04 18:10 | 49.61406 | 11.09704 | 6322 ft | 299 kts | 114° |
| 2026-05-04 18:10 | 49.60584 | 11.12610 | 6071 ft | 292 kts | 114° |
| 2026-05-04 18:11 | 49.59780 | 11.15448 | 5876 ft | 287 kts | 114° |
| 2026-05-04 18:11 | 49.59016 | 11.18265 | 5654 ft | 283 kts | 109° |
| 2026-05-04 18:11 | 49.58647 | 11.21219 | 5475 ft | 279 kts | 98° |
| 2026-05-04 18:11 | 49.58367 | 11.24163 | 5323 ft | 276 kts | 99° |
| 2026-05-04 18:12 | 49.58062 | 11.27064 | 5172 ft | 273 kts | 99° |
| 2026-05-04 18:12 | 49.57769 | 11.29950 | 5014 ft | 271 kts | 99° |
| 2026-05-04 18:12 | 49.57490 | 11.32780 | 5003 ft | 263 kts | 98° |
| 2026-05-04 18:12 | 49.57218 | 11.35490 | 4993 ft | 245 kts | 99° |
| 2026-05-04 18:13 | 49.56973 | 11.37928 | 4994 ft | 224 kts | 99° |
| 2026-05-04 18:13 | 49.56736 | 11.40257 | 4995 ft | 221 kts | 99° |
| 2026-05-04 18:13 | 49.55336 | 11.44485 | 4747 ft | 243 kts | 146° |
| 2026-05-04 18:14 | 49.53709 | 11.45321 | 4530 ft | 253 kts | 176° |
| 2026-05-04 18:14 | 49.51961 | 11.45016 | 4373 ft | 249 kts | 191° |
| 2026-05-04 18:14 | 49.50307 | 11.44403 | 4193 ft | 241 kts | 193° |
| 2026-05-04 18:15 | 49.47835 | 11.41380 | 4003 ft | 235 kts | 248° |
| 2026-05-04 18:15 | 49.47126 | 11.37376 | 3995 ft | 234 kts | 265° |
| 2026-05-04 18:15 | 49.47187 | 11.34877 | 3998 ft | 235 kts | 278° |
| 2026-05-04 18:16 | 49.47449 | 11.32365 | 3936 ft | 238 kts | 280° |
| 2026-05-04 18:16 | 49.47694 | 11.29912 | 3656 ft | 225 kts | 279° |
| 2026-05-04 18:16 | 49.47913 | 11.27585 | 3371 ft | 215 kts | 280° |
| 2026-05-04 18:17 | 49.48343 | 11.23237 | 2823 ft | 198 kts | 280° |
| 2026-05-04 18:17 | 49.48554 | 11.21205 | 2579 ft | 183 kts | 280° |
| 2026-05-04 18:17 | 49.48894 | 11.17734 | 2127 ft | 150 kts | 281° |
| 2026-05-04 18:18 | 49.49043 | 11.16165 | 1924 ft | 146 kts | 279° |
| 2026-05-04 18:18 | 49.49196 | 11.14626 | 1730 ft | 146 kts | 281° |
| 2026-05-04 18:18 | 49.49356 | 11.13095 | 1533 ft | 143 kts | 280° |
| 2026-05-04 18:18 | 49.49498 | 11.11587 | 1356 ft | 141 kts | 279° |
| 2026-05-04 18:19 | 49.49782 | 11.08699 | 1034 ft | 119 kts | 278° |
| 2026-05-04 18:19 | 49.49883 | 11.07669 | 1021 ft | 71 kts | 279° |
| 2026-05-04 18:19 | 49.49936 | 11.07126 | 1018 ft | 25 kts | 279° |
| 2026-05-04 18:20 | 49.49883 | 11.07014 | 1016 ft | 15 kts | 173° |
| 2026-05-04 18:20 | 49.49808 | 11.07055 | 1015 ft | 8 kts | 159° |
| 2026-05-04 18:20 | 49.49794 | 11.07064 | 1015 ft | 0 kts | 158° |
| 2026-05-04 18:20 | 49.49793 | 11.07064 | 1015 ft | 0 kts | 158° |
| 2026-05-04 18:21 | 49.49783 | 11.07070 | 1015 ft | 5 kts | 158° |
| 2026-05-04 18:21 | 49.49744 | 11.07126 | 1016 ft | 9 kts | 105° |
| 2026-05-04 18:22 | 49.49721 | 11.07219 | 1017 ft | 10 kts | 143° |
| 2026-05-04 18:22 | 49.49657 | 11.07223 | 1018 ft | 8 kts | 188° |
| 2026-05-04 18:22 | 49.49614 | 11.07214 | 1019 ft | 6 kts | 189° |
| 2026-05-04 18:22 | 49.49571 | 11.07204 | 1020 ft | 6 kts | 187° |
| 2026-05-04 18:23 | 49.49521 | 11.07193 | 1020 ft | 6 kts | 196° |
| 2026-05-04 18:23 | 49.49515 | 11.07139 | 1020 ft | 7 kts | 339° |
| 2026-05-04 18:23 | 49.49539 | 11.07136 | 1020 ft | 0 kts | 8° |